• Join FlightAware (Why Join?)
  • Login
  • US Flag 
01:29PM EDT


 

Airport Tracker/Info


-or-


 

Live Flight TrackerFlight Track Log ✈ N7724T ✈ 27-Apr-2012 ✈ KRFD - KSUW

Flight Track Log - Related Links

Times and Time Zones

All times are in EDT time to prevent confusion due to time zone crossing. See the N7724T flight status page for this flight to view local times or setup timezone preferences in your user account.

Time Position Orientation Groundspeed Altitude Reporting Facility
EDT Latitude Longitude Course Direction KTS MPH feet Rate Location/Type
04:59PM 42.2401 -89.1245 337° Northwest  Level FlightAware Approximate
05:00PM 42.2759 -89.1464 337° Northwest  Level FlightAware Approximate
05:01PM 42.3131 -89.1598 337° Northwest  Level FlightAware Approximate
05:02PM 42.3489 -89.1818 337° Northwest  Level FlightAware Approximate
05:03PM 42.3821 -89.2097 337° Northwest  Level FlightAware Approximate
05:04PM 42.4178 -89.2317 337° Northwest  Level FlightAware Approximate
05:05PM 42.4536 -89.2537 337° Northwest  Level FlightAware Approximate
05:06PM 42.4893 -89.2758 337° Northwest  Level FlightAware Approximate
05:07PM 42.5251 -89.2979 337° Northwest  Level FlightAware Approximate
05:08PM 42.5608 -89.3199 337° Northwest  Level FlightAware Approximate
05:09PM 42.5966 -89.3421 337° Northwest  Level FlightAware Approximate
05:10PM 42.6323 -89.3642 337° Northwest  Level FlightAware Approximate
05:11PM 42.6680 -89.3864 337° Northwest  Level FlightAware Approximate
05:12PM 42.7038 -89.4086 338° Northwest  Level FlightAware Approximate
05:13PM 42.7375 -89.4359 338° Northwest  Level FlightAware Approximate
05:14PM 42.7732 -89.4583 338° Northwest  Level FlightAware Approximate
05:15PM 42.8088 -89.4806 338° Northwest  Level FlightAware Approximate
05:16PM 42.8445 -89.5030 338° Northwest  Level FlightAware Approximate
05:17PM 42.8802 -89.5254 339° North  Level FlightAware Approximate
05:18PM 42.9159 -89.5479 339° North  Level FlightAware Approximate
05:19PM 42.9515 -89.5703 339° North  Level FlightAware Approximate
05:20PM 42.9872 -89.5928 340° North  Level FlightAware Approximate
05:21PM 43.0228 -89.6153 340° North  Level FlightAware Approximate
05:22PM 43.0585 -89.6378 340° North  Level FlightAware Approximate
05:23PM 43.0921 -89.6591 341° North  Level FlightAware Approximate
05:24PM 43.1257 -89.6804 342° North  Level FlightAware Approximate
05:25PM 43.1593 -89.7017 342° North  Level FlightAware Approximate
05:26PM 43.1929 -89.7231 344° North  Level FlightAware Approximate
05:27PM 43.2264 -89.7444 345° North  Level FlightAware Approximate
05:28PM 43.2600 -89.7658 348° North  Level FlightAware Approximate
05:29PM 43.2936 -89.7872 351° North  Level FlightAware Approximate
05:30PM 43.3272 -89.8087 358° North  Level FlightAware Approximate
05:31PM 43.4144 -89.8128 336° Northwest 145 167 5,900  Level Chicago Center
05:32PM 43.4519 -89.8358 338° Northwest 153 176 5,900  Level Chicago Center
05:33PM 43.4892 -89.8561 336° Northwest 153 176 6,000  Climbing Chicago Center
05:34PM 43.5267 -89.8794 333° Northwest 153 176 6,000  Level Chicago Center
05:35PM 43.5642 -89.9056 332° Northwest 147 169 6,100  Climbing Chicago Center
05:36PM 43.5994 -89.9317 334° Northwest 152 175 6,100  Level Chicago Center
05:37PM 43.6389 -89.9578 334° Northwest 152 175 6,100  Level Chicago Center
05:38PM 43.6742 -89.9811 340° North 152 175 6,100  Level Chicago Center
05:39PM 43.7094 -89.9986 334° Northwest 141 162 6,100  Level Chicago Center
05:40PM 43.7447 -90.0222 333° Northwest 141 162 6,100  Level Chicago Center
05:41PM 43.7819 -90.0483 336° Northwest 146 168 6,100  Level Chicago Center
05:42PM 43.8194 -90.0719 337° Northwest 141 162 6,100  Level Chicago Center
05:44PM 43.8925 -90.1156 336° Northwest 142 163 6,100  Level Minneapolis Center
05:45PM 43.9306 -90.1392 334° Northwest 137 158 6,100  Level Minneapolis Center
05:46PM 43.9667 -90.1633 335° Northwest 145 167 6,100  Level Minneapolis Center
05:47PM 44.0072 -90.1897 334° Northwest 145 167 6,100  Level Minneapolis Center
05:48PM 44.0431 -90.2139 333° Northwest 145 167 6,100  Level Minneapolis Center
05:49PM 44.0814 -90.2406 336° Northwest 145 167 6,200 240 Climbing Minneapolis Center
05:50PM 44.1153 -90.2619 336° Northwest 135 155 6,600 420 Climbing Minneapolis Center
05:51PM 44.1450 -90.2806 333° Northwest 129 148 7,100 420 Climbing Minneapolis Center
05:52PM 44.1750 -90.3019 337° Northwest 124 143 7,500 360 Climbing Minneapolis Center
05:53PM 44.2067 -90.3206 334° Northwest 124 143 7,900 240 Climbing Minneapolis Center
05:54PM 44.2386 -90.3419 336° Northwest 123 142 8,100 120 Climbing Minneapolis Center
05:55PM 44.2725 -90.3633 336° Northwest 130 150 8,200  Climbing Minneapolis Center
05:56PM 44.3064 -90.3847 336° Northwest 135 155 8,100 -60 Descending Minneapolis Center
05:57PM 44.3444 -90.4089 336° Northwest 140 161 8,100  Level Minneapolis Center
05:58PM 44.3783 -90.4303 334° Northwest 140 161 8,100  Level Minneapolis Center
05:59PM 44.4144 -90.4547 339° North 140 161 8,100  Level Minneapolis Center
06:00PM 44.4547 -90.4758 330° Northwest 145 167 8,100  Level Minneapolis Center
06:01PM 44.4822 -90.4978 336° Northwest 145 167 8,200  Climbing Minneapolis Center
06:02PM 44.5247 -90.5247 335° Northwest 140 161 8,200  Level Minneapolis Center
06:03PM 44.5608 -90.5489 331° Northwest 140 161 8,200 -60 Level Minneapolis Center
06:04PM 44.5928 -90.5736 333° Northwest 140 161 8,100 -120 Descending Minneapolis Center
06:05PM 44.6267 -90.5983 334° Northwest 140 161 8,000 -60 Descending Minneapolis Center
06:06PM 44.6583 -90.6200 336° Northwest 140 161 8,000  Level Minneapolis Center
06:07PM 44.6711 -90.6281 360° North 140 161 8,000  Level Minneapolis Center
06:08PM 44.6711 -90.6281 330° Northwest 140 161 8,000  Level Minneapolis Center
06:09PM 44.7392 -90.6833 332° Northwest 140 161 8,000  Level Minneapolis Center
06:10PM 44.7539 -90.6942 337° Northwest 140 161 8,000  Level Minneapolis Center
06:11PM 44.7858 -90.7131 335° Northwest 140 161 8,000  Level Minneapolis Center
06:12PM 44.8789 -90.7731 334° Northwest 140 161 8,100 60 Climbing Minneapolis Center
06:13PM 44.9147 -90.7978 338° Northwest 140 161 8,200  Climbing Minneapolis Center
06:14PM 44.9528 -90.8197 334° Northwest 140 161 8,100  Descending Minneapolis Center
06:15PM 44.9889 -90.8444 337° Northwest 140 161 8,200  Climbing Minneapolis Center
06:16PM 45.0247 -90.8661 329° Northwest 140 161 8,200 -60 Level Minneapolis Center
06:17PM 45.0672 -90.9025 334° Northwest 157 181 8,100  Descending Minneapolis Center
06:18PM 45.1033 -90.9272 338° Northwest 157 181 8,200  Climbing Minneapolis Center
06:19PM 45.1369 -90.9464 337° Northwest 144 166 8,100  Descending Minneapolis Center
06:20PM 45.1728 -90.9683 333° Northwest 144 166 8,200  Climbing Minneapolis Center
06:21PM 45.2111 -90.9964 335° Northwest 139 160 8,100 -60 Descending Minneapolis Center
06:22PM 45.2447 -91.0183 336° Northwest 139 160 8,100  Level Minneapolis Center
06:23PM 45.2850 -91.0433 337° Northwest 139 160 8,100  Level Minneapolis Center
06:24PM 45.3208 -91.0653 336° Northwest 139 160 8,200  Climbing Minneapolis Center
06:25PM 45.3567 -91.0875 335° Northwest 139 160 8,100  Descending Minneapolis Center
06:26PM 45.3947 -91.1125 333° Northwest 139 160 8,200  Climbing Minneapolis Center
06:27PM 45.4328 -91.1406 332° Northwest 139 160 8,100  Descending Minneapolis Center
06:28PM 45.4667 -91.1658 331° Northwest 139 160 8,200  Climbing Minneapolis Center
06:29PM 45.4983 -91.1911 332° Northwest 139 160 8,200  Level Minneapolis Center
06:30PM 45.5322 -91.2164 328° Northwest 139 160 8,200  Level Minneapolis Center
06:31PM 45.5767 -91.2561 332° Northwest 150 173 8,200 -60 Level Minneapolis Center
06:32PM 45.6106 -91.2817 335° Northwest 150 173 8,100 -60 Descending Minneapolis Center
06:33PM 45.6486 -91.3069 337° Northwest 143 165 8,100  Level Minneapolis Center
06:34PM 45.6803 -91.3264 332° Northwest 137 158 8,100  Level Minneapolis Center
06:35PM 45.7139 -91.3519 336° Northwest 137 158 8,100  Level Minneapolis Center
06:36PM 45.7497 -91.3744 335° Northwest 137 158 8,100  Level Minneapolis Center
06:37PM 45.7878 -91.3997 334° Northwest 142 163 8,100  Level Minneapolis Center
06:38PM 45.8236 -91.4253 333° Northwest 142 163 8,100  Level Minneapolis Center
06:39PM 45.8553 -91.4481 335° Northwest 137 158 8,100  Level Minneapolis Center
06:40PM 45.8889 -91.4706 338° Northwest 137 158 8,100  Level Minneapolis Center
06:41PM 45.9331 -91.4958 337° Northwest 146 168 8,100  Level Minneapolis Center
06:42PM 45.9711 -91.5186 337° Northwest 151 174 8,100  Level Minneapolis Center
06:43PM 46.0175 -91.5467 334° Northwest 151 174 8,100 -60 Level Minneapolis Center
06:44PM 46.0575 -91.5753 340° North 151 174 8,000 -60 Descending Minneapolis Center
06:45PM 46.0953 -91.5950 335° Northwest 151 174 8,000  Level Minneapolis Center
06:46PM 46.1164 -91.6092 360° North 151 174 8,000  Level Minneapolis Center
06:47PM 46.1164 -91.6092 360° North 151 174 8,000  Level Minneapolis Center
06:48PM 46.1164 -91.6092 328° Northwest 151 174 8,000  Level Minneapolis Center
06:49PM 46.2242 -91.7078 331° Northwest 140 161 8,100  Climbing Minneapolis Center
06:50PM 46.2600 -91.7367 329° Northwest 145 167 8,100  Level Minneapolis Center
06:51PM 46.2936 -91.7656 335° Northwest 145 167 8,100 -180 Level Minneapolis Center
06:52PM 46.3317 -91.7914 330° Northwest 145 167 7,800 -420 Descending Minneapolis Center
06:53PM 46.3694 -91.8236 332° Northwest 150 173 7,300 -480 Descending Minneapolis Center
06:54PM 46.4033 -91.8497 335° Northwest 150 173 6,900 300 Descending Minneapolis Center
06:55PM 46.4411 -91.8756 332° Northwest 150 173 8,000 -720 Climbing Minneapolis Center
06:56PM 46.4894 -91.9133 332° Northwest 145 167 5,500 -1,500 Descending Minneapolis Center
06:57PM 46.5231 -91.9397 335° Northwest 152 175 5,100 1,200 Descending Minneapolis Center
06:58PM 46.5611 -91.9658 336° Northwest 152 175 8,000 1,440 Climbing Minneapolis Center
06:59PM 46.5967 -91.9889 341° North 152 175 8,000  Level Minneapolis Center
07:00PM 46.6197 -92.0006 341° North 152 175 8,000  Level Minneapolis Center